createdAt,value
2022-11-28T00:03:00.866Z,100301.10
2022-11-28T00:06:22.974Z,100303.00
2022-11-28T00:09:25.286Z,100302.54
2022-11-28T00:12:27.694Z,100301.91
2022-11-28T00:15:29.388Z,100296.86
2022-11-28T00:18:32.220Z,100293.58
2022-11-28T00:21:34.248Z,100295.30
2022-11-28T00:24:35.961Z,100294.11
2022-11-28T00:27:37.557Z,100292.82
2022-11-28T00:30:39.340Z,100290.59
2022-11-28T00:33:41.531Z,100290.10
2022-11-28T00:36:45.294Z,100293.73
2022-11-28T00:39:47.087Z,100292.95
2022-11-28T00:42:48.687Z,100298.73
2022-11-28T00:45:50.431Z,100304.36
2022-11-28T00:48:52.095Z,100308.17
2022-11-28T00:51:53.725Z,100306.20
2022-11-28T00:54:55.442Z,100302.60
2022-11-28T00:57:57.060Z,100302.69
2022-11-28T01:00:58.948Z,100294.46
2022-11-28T01:04:03.379Z,100294.56
2022-11-28T01:07:05.061Z,100294.59
2022-11-28T01:10:07.240Z,100293.02
2022-11-28T01:13:09.452Z,100286.99
2022-11-28T01:16:11.673Z,100280.85
2022-11-28T01:19:14.944Z,100282.01
2022-11-28T01:22:19.836Z,100268.17
2022-11-28T01:25:21.497Z,100263.48
2022-11-28T01:28:23.221Z,100269.05
2022-11-28T01:31:26.013Z,100269.64
2022-11-28T01:34:27.679Z,100262.11
2022-11-28T01:37:30.419Z,100251.96
2022-11-28T01:40:32.081Z,100247.73
2022-11-28T01:43:34.783Z,100249.44
2022-11-28T01:46:37.154Z,100243.21
2022-11-28T01:49:38.956Z,100239.05
2022-11-28T01:52:41.103Z,100238.72
2022-11-28T01:55:49.069Z,100237.77
2022-11-28T01:58:53.481Z,100236.39
2022-11-28T02:01:55.343Z,100233.63
2022-11-28T02:04:58.407Z,100233.14
2022-11-28T02:08:00.138Z,100223.73
2022-11-28T02:11:27.077Z,100224.20
2022-11-28T02:15:02.623Z,100211.95
2022-11-28T02:18:50.758Z,100204.61
2022-11-28T02:21:59.837Z,100199.52
2022-11-28T02:25:18.965Z,100196.42
2022-11-28T02:28:35.519Z,100192.98
2022-11-28T02:32:15.185Z,100196.91
2022-11-28T02:35:29.509Z,100204.25
2022-11-28T02:38:40.376Z,100203.09
2022-11-28T02:41:46.387Z,100193.20
2022-11-28T02:45:19.025Z,100182.95
2022-11-28T02:48:36.227Z,100182.24
2022-11-28T02:51:44.221Z,100184.27
2022-11-28T02:54:46.433Z,100184.38
2022-11-28T02:57:50.704Z,100186.27
2022-11-28T03:00:52.652Z,100185.95
2022-11-28T03:04:03.448Z,100185.02
2022-11-28T03:07:19.171Z,100180.00
2022-11-28T03:10:28.379Z,100172.69
2022-11-28T03:13:38.934Z,100170.08
2022-11-28T03:16:49.175Z,100160.96
2022-11-28T03:20:15.187Z,100151.86
2022-11-28T03:23:20.244Z,100151.48
2022-11-28T03:26:29.555Z,100151.02
2022-11-28T03:29:41.780Z,100151.11
2022-11-28T03:32:43.659Z,100150.73
2022-11-28T03:35:49.503Z,100158.63
2022-11-28T03:38:55.294Z,100156.44
2022-11-28T03:42:05.639Z,100153.10
2022-11-28T03:45:25.935Z,100154.71
2022-11-28T03:48:35.019Z,100156.16
2022-11-28T03:51:49.950Z,100153.45
2022-11-28T03:55:12.069Z,100144.29
2022-11-28T03:58:21.389Z,100148.41
2022-11-28T04:01:26.339Z,100153.51
2022-11-28T04:05:00.909Z,100152.94
2022-11-28T04:08:18.401Z,100149.84
2022-11-28T04:11:25.516Z,100144.84
2022-11-28T04:14:32.604Z,100141.45
2022-11-28T04:17:52.934Z,100140.61
2022-11-28T04:21:03.420Z,100142.30
2022-11-28T04:24:21.246Z,100142.50
2022-11-28T04:27:27.018Z,100139.15
2022-11-28T04:30:28.741Z,100133.08
2022-11-28T04:33:31.625Z,100134.83
2022-11-28T04:36:36.128Z,100128.59
2022-11-28T04:39:38.533Z,100122.01
2022-11-28T04:42:47.516Z,100116.86
2022-11-28T04:45:56.419Z,100121.02
2022-11-28T04:48:59.024Z,100123.33
2022-11-28T04:52:09.317Z,100121.27
2022-11-28T04:55:33.836Z,100121.63
2022-11-28T04:58:38.675Z,100120.95
2022-11-28T05:01:42.173Z,100117.94
2022-11-28T05:04:45.049Z,100117.50
2022-11-28T05:07:47.024Z,100117.70
2022-11-28T05:10:48.849Z,100122.77
2022-11-28T05:13:50.555Z,100125.25
2022-11-28T05:16:52.566Z,100126.05
2022-11-28T05:19:54.374Z,100127.60
2022-11-28T05:22:56.121Z,100125.11
2022-11-28T05:25:58.064Z,100123.77
2022-11-28T05:28:59.881Z,100122.10
2022-11-28T05:32:01.576Z,100127.34
2022-11-28T05:35:04.390Z,100122.86
2022-11-28T05:38:09.390Z,100121.96
2022-11-28T05:41:23.536Z,100121.60
2022-11-28T05:44:27.071Z,100118.37
2022-11-28T05:47:33.281Z,100117.73
2022-11-28T05:50:39.777Z,100117.73
2022-11-28T05:53:42.234Z,100120.23
2022-11-28T05:56:43.999Z,100120.94
2022-11-28T05:59:45.975Z,100120.51
2022-11-28T06:02:47.765Z,100115.07
2022-11-28T06:05:49.867Z,100116.89
2022-11-28T06:08:52.521Z,100114.94
2022-11-28T06:11:54.394Z,100117.45
2022-11-28T06:14:56.058Z,100117.90
2022-11-28T06:17:57.741Z,100118.70
2022-11-28T06:21:02.820Z,100118.56
2022-11-28T06:24:04.719Z,100111.97
2022-11-28T06:27:06.370Z,100109.25
2022-11-28T06:30:08.142Z,100110.33
2022-11-28T06:33:09.886Z,100110.23
2022-11-28T06:36:13.231Z,100106.95
2022-11-28T06:39:17.078Z,100109.44
2022-11-28T06:42:19.988Z,100109.82
2022-11-28T06:45:21.662Z,100113.40
2022-11-28T06:48:24.044Z,100114.73
2022-11-28T06:51:25.869Z,100119.10
2022-11-28T06:54:27.541Z,100120.04
2022-11-28T06:57:29.305Z,100116.79
2022-11-28T07:00:31.119Z,100119.52
2022-11-28T07:03:32.784Z,100114.20
2022-11-28T07:06:34.943Z,100120.12
2022-11-28T07:09:36.569Z,100118.63
2022-11-28T07:12:38.367Z,100121.16
2022-11-28T07:15:40.023Z,100118.75
2022-11-28T07:18:42.185Z,100111.42
2022-11-28T07:21:43.958Z,100110.39
2022-11-28T07:24:48.425Z,100108.41
2022-11-28T07:27:50.215Z,100105.54
2022-11-28T07:31:06.613Z,100100.71
2022-11-28T07:34:09.201Z,100102.35
2022-11-28T07:37:10.939Z,100106.34
2022-11-28T07:40:13.605Z,100101.71
2022-11-28T07:43:15.385Z,100097.12
2022-11-28T07:46:17.930Z,100096.08
2022-11-28T07:49:19.616Z,100097.69
2022-11-28T07:52:21.234Z,100096.48
2022-11-28T07:55:23.043Z,100092.95
2022-11-28T07:58:24.821Z,100090.41
2022-11-28T08:01:28.557Z,100088.30
2022-11-28T08:04:30.341Z,100087.23
2022-11-28T08:07:32.157Z,100086.20
2022-11-28T08:10:33.953Z,100089.29
2022-11-28T08:13:36.315Z,100084.10
2022-11-28T08:16:41.422Z,100086.77
2022-11-28T08:19:43.129Z,100087.34
2022-11-28T08:22:44.713Z,100086.55
2022-11-28T08:25:46.433Z,100084.86
2022-11-28T08:28:48.251Z,100089.05
2022-11-28T08:31:49.909Z,100092.94
2022-11-28T08:34:51.623Z,100092.96
2022-11-28T08:37:54.787Z,100093.25
2022-11-28T08:41:08.138Z,100085.61
2022-11-28T08:44:09.855Z,100085.62
2022-11-28T08:47:11.562Z,100084.48
2022-11-28T08:50:13.147Z,100088.47
2022-11-28T08:53:18.652Z,100088.30
2022-11-28T08:56:20.469Z,100087.48
2022-11-28T08:59:22.284Z,100086.30
2022-11-28T09:02:26.072Z,100086.27
2022-11-28T09:05:29.130Z,100086.75
2022-11-28T09:08:30.749Z,100087.77
2022-11-28T09:11:32.560Z,100083.91
2022-11-28T09:14:34.336Z,100078.89
2022-11-28T09:17:35.873Z,100071.60
2022-11-28T09:20:37.780Z,100063.09
2022-11-28T09:23:43.616Z,100062.71
2022-11-28T09:26:45.267Z,100054.98
2022-11-28T09:29:46.945Z,100050.02
2022-11-28T09:32:51.612Z,100038.21
2022-11-28T09:35:55.462Z,100033.76
2022-11-28T09:39:00.382Z,100033.80
2022-11-28T09:42:22.586Z,100034.41
2022-11-28T09:45:24.981Z,100028.08
2022-11-28T09:48:32.774Z,100022.59
2022-11-28T09:51:39.832Z,100016.33
2022-11-28T09:54:52.983Z,100013.92
2022-11-28T09:57:54.960Z,100010.28
2022-11-28T10:01:11.775Z,100012.13
2022-11-28T10:04:38.248Z,100006.25
2022-11-28T10:08:10.966Z,100009.33
2022-11-28T10:11:34.514Z,100001.94
2022-11-28T10:14:48.475Z,99990.38
2022-11-28T10:17:53.059Z,99985.46
2022-11-28T10:21:03.487Z,99979.60
2022-11-28T10:24:14.706Z,99972.55
2022-11-28T10:27:17.444Z,99974.88
2022-11-28T10:30:36.155Z,99971.10
2022-11-28T10:33:49.235Z,99970.38
2022-11-28T10:36:57.452Z,99963.98
2022-11-28T10:40:16.533Z,99957.58
2022-11-28T10:43:29.544Z,99956.23
2022-11-28T10:46:58.005Z,99959.13
2022-11-28T10:50:08.572Z,99964.44
2022-11-28T10:53:33.043Z,99963.98
2022-11-28T10:56:59.772Z,99961.58
2022-11-28T11:00:13.558Z,99959.98
2022-11-28T11:03:17.782Z,99955.16
2022-11-28T11:06:19.560Z,99949.27
2022-11-28T11:09:21.463Z,99950.94
2022-11-28T11:12:27.554Z,99948.88
2022-11-28T11:15:33.513Z,99943.50
2022-11-28T11:18:52.188Z,99946.94
2022-11-28T11:22:05.528Z,99943.32
2022-11-28T11:25:15.919Z,99947.42
2022-11-28T11:28:32.894Z,99945.58
2022-11-28T11:31:44.815Z,99945.61
2022-11-28T11:34:46.997Z,99945.48
2022-11-28T11:37:48.837Z,99941.94
2022-11-28T11:40:51.460Z,99937.95
2022-11-28T11:43:53.156Z,99933.80
2022-11-28T11:46:58.235Z,99938.22
2022-11-28T11:50:04.906Z,99932.83
2022-11-28T11:53:10.136Z,99933.08
2022-11-28T11:56:12.624Z,99931.08
2022-11-28T11:59:19.337Z,99932.54
2022-11-28T12:02:47.186Z,99934.91
2022-11-28T12:09:25.133Z,99924.34
2022-11-28T12:12:30.844Z,99927.05
2022-11-28T12:15:44.866Z,99920.81
2022-11-28T12:18:56.179Z,99917.48
2022-11-28T12:22:36.024Z,99920.32
2022-11-28T12:25:45.045Z,99917.94
2022-11-28T12:28:59.054Z,99922.00
2022-11-28T12:32:06.617Z,99918.92
2022-11-28T12:35:41.269Z,99916.06
2022-11-28T12:39:01.963Z,99916.80
2022-11-28T12:42:09.443Z,99918.34
2022-11-28T12:45:49.680Z,99916.38
2022-11-28T12:48:58.705Z,99913.98
2022-11-28T12:52:22.895Z,99911.75
2022-11-28T12:55:39.925Z,99910.48
2022-11-28T12:59:08.814Z,99908.54
2022-11-28T13:02:39.013Z,99899.27
2022-11-28T13:05:50.189Z,99903.75
2022-11-28T13:09:11.962Z,99903.63
2022-11-28T13:12:16.619Z,99898.66
2022-11-28T13:15:31.835Z,99894.07
2022-11-28T13:18:49.025Z,99894.05
2022-11-28T13:22:07.993Z,99894.45
2022-11-28T13:25:36.833Z,99889.11
2022-11-28T13:28:45.256Z,99892.59
2022-11-28T13:32:15.051Z,99889.72
2022-11-28T13:35:18.754Z,99890.86
2022-11-28T13:38:39.773Z,99889.08
2022-11-28T13:43:02.133Z,99893.02
2022-11-28T13:45:40.616Z,99894.73
2022-11-28T13:52:17.733Z,99892.27
2022-11-28T13:55:52.882Z,99887.05
2022-11-28T13:59:00.858Z,99884.17
2022-11-28T14:02:05.805Z,99883.16
2022-11-28T14:05:26.364Z,99881.96
2022-11-28T14:08:38.249Z,99887.33
2022-11-28T14:12:05.165Z,99890.16
2022-11-28T14:15:31.409Z,99889.98
2022-11-28T14:18:56.737Z,99892.16
2022-11-28T14:22:15.602Z,99893.60
2022-11-28T14:25:31.777Z,99892.21
2022-11-28T14:28:36.924Z,99895.26
2022-11-28T14:31:39.181Z,99890.79
2022-11-28T14:34:44.291Z,99894.46
2022-11-28T14:37:55.644Z,99893.26
2022-11-28T14:40:57.488Z,99894.48
2022-11-28T14:44:37.016Z,99893.00
2022-11-28T14:47:43.245Z,99896.83
2022-11-28T14:51:00.649Z,99894.16
2022-11-28T14:54:23.096Z,99895.35
2022-11-28T14:57:33.059Z,99896.36
2022-11-28T15:00:47.508Z,99895.20
2022-11-28T15:04:00.300Z,99893.87
2022-11-28T15:07:03.428Z,99903.05
2022-11-28T15:10:20.705Z,99901.83
2022-11-28T15:13:48.195Z,99902.16
2022-11-28T15:16:53.220Z,99899.63
2022-11-28T15:19:56.216Z,99903.05
2022-11-28T15:22:57.914Z,99906.11
2022-11-28T15:26:00.140Z,99904.73
2022-11-28T15:29:21.415Z,99906.23
2022-11-28T15:32:24.287Z,99902.45
2022-11-28T15:35:26.961Z,99898.34
2022-11-28T15:38:30.500Z,99904.87
2022-11-28T15:41:32.197Z,99903.58
2022-11-28T15:44:37.814Z,99896.20
2022-11-28T15:47:39.654Z,99889.91
2022-11-28T15:50:50.377Z,99886.98
2022-11-28T15:53:52.051Z,99883.23
2022-11-28T15:56:58.021Z,99886.75
2022-11-28T16:00:01.535Z,99890.96
2022-11-28T16:03:03.590Z,99886.60
2022-11-28T16:06:06.194Z,99891.00
2022-11-28T16:09:24.923Z,99893.52
2022-11-28T16:12:27.749Z,99894.08
2022-11-28T16:15:30.209Z,99894.93
2022-11-28T16:18:32.011Z,99892.84
2022-11-28T16:21:38.077Z,99895.20
2022-11-28T16:24:47.319Z,99891.05
2022-11-28T16:27:53.242Z,99887.27
2022-11-28T16:30:54.905Z,99888.83
2022-11-28T16:33:57.121Z,99890.05
2022-11-28T16:36:58.854Z,99894.66
2022-11-28T16:40:04.944Z,99891.88
2022-11-28T16:43:23.619Z,99891.28
2022-11-28T16:46:30.008Z,99888.77
2022-11-28T16:49:43.957Z,99890.74
2022-11-28T16:52:57.740Z,99886.94
2022-11-28T16:55:59.377Z,99888.27
2022-11-28T16:59:21.022Z,99889.63
2022-11-28T17:02:24.721Z,99889.41
2022-11-28T17:05:26.542Z,99893.48
2022-11-28T17:08:30.489Z,99885.63
2022-11-28T17:11:35.095Z,99889.04
2022-11-28T17:14:37.954Z,99886.27
2022-11-28T17:17:39.547Z,99889.23
2022-11-28T17:20:41.252Z,99892.63
2022-11-28T17:23:43.529Z,99890.04
2022-11-28T17:26:46.500Z,99892.17
2022-11-28T17:29:48.261Z,99895.40
2022-11-28T17:32:52.111Z,99899.87
2022-11-28T17:35:54.870Z,99902.48
2022-11-28T17:38:58.794Z,99902.05
2022-11-28T17:42:05.110Z,99900.48
2022-11-28T17:45:13.457Z,99902.11
2022-11-28T17:48:16.344Z,99901.48
2022-11-28T17:51:18.136Z,99902.67
2022-11-28T17:54:21.829Z,99903.76
2022-11-28T17:57:23.537Z,99903.33
2022-11-28T18:00:25.558Z,99905.13
2022-11-28T18:03:28.305Z,99905.80
2022-11-28T18:06:30.840Z,99906.09
2022-11-28T18:09:32.440Z,99904.09
2022-11-28T18:12:34.139Z,99906.52
2022-11-28T18:15:39.410Z,99905.17
2022-11-28T18:18:41.448Z,99908.10
2022-11-28T18:21:43.169Z,99899.52
2022-11-28T18:24:44.876Z,99901.80
2022-11-28T18:27:46.516Z,99897.45
2022-11-28T18:30:48.279Z,99900.16
2022-11-28T18:33:50.059Z,99900.23
2022-11-28T18:36:58.551Z,99901.48
2022-11-28T18:40:01.114Z,99901.80
2022-11-28T18:43:05.435Z,99904.13
2022-11-28T18:46:10.124Z,99905.44
2022-11-28T18:49:12.527Z,99904.31
2022-11-28T18:52:14.168Z,99902.30
2022-11-28T18:55:16.017Z,99904.70
2022-11-28T18:58:17.543Z,99900.58
2022-11-28T19:01:28.749Z,99902.16
2022-11-28T19:04:30.589Z,99899.81
2022-11-28T19:07:32.358Z,99903.52
2022-11-28T19:10:38.390Z,99900.96
2022-11-28T19:13:41.485Z,99902.44
2022-11-28T19:16:45.088Z,99894.97
2022-11-28T19:19:47.186Z,99896.92
2022-11-28T19:22:48.860Z,99898.54
2022-11-28T19:25:50.606Z,99896.80
2022-11-28T19:28:52.626Z,99897.10
2022-11-28T19:31:54.553Z,99895.81
2022-11-28T19:34:56.445Z,99895.98
2022-11-28T19:37:58.269Z,99895.27
2022-11-28T19:41:08.393Z,99899.02
2022-11-28T19:44:11.492Z,99898.02
2022-11-28T19:47:13.178Z,99898.96
2022-11-28T19:50:15.316Z,99898.69
2022-11-28T19:53:17.803Z,99899.53
2022-11-28T19:56:21.203Z,99904.55
2022-11-28T19:59:23.029Z,99905.27
2022-11-28T20:02:24.726Z,99907.86
2022-11-28T20:05:26.437Z,99909.32
2022-11-28T20:08:28.839Z,99912.77
2022-11-28T20:11:33.607Z,99916.05
2022-11-28T20:14:35.394Z,99913.75
2022-11-28T20:17:37.007Z,99916.54
2022-11-28T20:20:38.928Z,99916.04
2022-11-28T20:23:45.257Z,99917.33
2022-11-28T20:26:46.881Z,99919.39
2022-11-28T20:29:48.865Z,99918.39
2022-11-28T20:32:50.637Z,99914.58
2022-11-28T20:35:56.966Z,99915.16
2022-11-28T20:39:02.000Z,99914.62
2022-11-28T20:42:04.182Z,99913.05
2022-11-28T20:45:06.470Z,99914.40
2022-11-28T20:48:08.241Z,99918.73
2022-11-28T20:51:15.943Z,99917.96
2022-11-28T20:54:18.254Z,99921.67
2022-11-28T20:57:21.668Z,99914.34
2022-11-28T21:00:26.737Z,99918.73
2022-11-28T21:03:28.866Z,99919.38
2022-11-28T21:06:30.788Z,99921.08
2022-11-28T21:09:32.501Z,99919.49
2022-11-28T21:12:34.225Z,99919.05
2022-11-28T21:15:40.475Z,99918.25
2022-11-28T21:18:43.492Z,99922.82
2022-11-28T21:21:45.301Z,99921.91
2022-11-28T21:24:50.527Z,99918.80
2022-11-28T21:27:52.227Z,99916.80
2022-11-28T21:30:54.041Z,99920.57
2022-11-28T21:33:57.210Z,99922.23
2022-11-28T21:36:58.859Z,99923.58
2022-11-28T21:40:00.658Z,99921.17
2022-11-28T21:43:02.512Z,99920.30
2022-11-28T21:46:07.516Z,99920.57
2022-11-28T21:49:09.319Z,99922.74
2022-11-28T21:52:11.637Z,99927.59
2022-11-28T21:55:13.454Z,99926.45
2022-11-28T21:58:15.135Z,99927.39
2022-11-28T22:01:17.218Z,99930.25
2022-11-28T22:04:21.971Z,99934.11
2022-11-28T22:07:23.728Z,99930.83
2022-11-28T22:10:25.415Z,99931.05
2022-11-28T22:13:28.229Z,99933.77
2022-11-28T22:16:30.132Z,99931.88
2022-11-28T22:19:32.140Z,99934.94
2022-11-28T22:22:33.890Z,99934.52
2022-11-28T22:25:35.576Z,99933.68
2022-11-28T22:28:38.677Z,99929.28
2022-11-28T22:31:40.539Z,99931.98
2022-11-28T22:34:42.671Z,99931.60
2022-11-28T22:37:45.311Z,99934.30
2022-11-28T22:40:47.474Z,99931.65
2022-11-28T22:43:49.450Z,99935.19
2022-11-28T22:46:51.207Z,99930.51
2022-11-28T22:49:52.939Z,99929.47
2022-11-28T22:52:54.484Z,99926.55
2022-11-28T22:55:56.269Z,99931.35
2022-11-28T22:58:57.981Z,99932.20
2022-11-28T23:02:00.046Z,99933.98
2022-11-28T23:05:01.826Z,99934.63
2022-11-28T23:08:03.584Z,99933.82
2022-11-28T23:11:06.960Z,99933.98
2022-11-28T23:14:13.307Z,99934.63
2022-11-28T23:17:15.001Z,99937.19
2022-11-28T23:20:18.143Z,99940.61
2022-11-28T23:23:19.782Z,99938.87
2022-11-28T23:26:23.880Z,99934.74
2022-11-28T23:29:25.595Z,99934.45
2022-11-28T23:32:27.489Z,99930.24
2022-11-28T23:35:29.130Z,99932.98
2022-11-28T23:38:30.803Z,99929.40
2022-11-28T23:41:33.115Z,99926.04
2022-11-28T23:44:34.935Z,99927.77
2022-11-28T23:47:36.576Z,99931.98
2022-11-28T23:50:38.492Z,99927.85
2022-11-28T23:53:40.055Z,99925.69
2022-11-28T23:56:43.497Z,99926.48
2022-11-28T23:59:45.322Z,99921.30
